createdAt,value
2023-06-18T00:00:59.434Z,16.93
2023-06-18T00:03:47.802Z,16.86
2023-06-18T00:06:35.637Z,16.82
2023-06-18T00:09:25.104Z,16.97
2023-06-18T00:12:13.095Z,16.96
2023-06-18T00:15:01.123Z,16.88
2023-06-18T00:17:50.411Z,16.84
2023-06-18T00:20:38.460Z,16.74
2023-06-18T00:23:26.431Z,16.89
2023-06-18T00:26:14.396Z,16.81
2023-06-18T00:29:02.306Z,16.79
2023-06-18T00:31:50.247Z,16.83
2023-06-18T00:34:42.946Z,16.83
2023-06-18T00:37:31.203Z,16.83
2023-06-18T00:40:19.017Z,16.82
2023-06-18T00:43:08.052Z,16.79
2023-06-18T00:45:55.999Z,16.89
2023-06-18T00:48:46.348Z,16.93
2023-06-18T00:51:36.159Z,16.78
2023-06-18T00:54:24.485Z,16.95
2023-06-18T00:57:15.449Z,17.05
2023-06-18T01:00:06.224Z,16.93
2023-06-18T01:02:54.976Z,16.68
2023-06-18T01:05:43.462Z,16.79
2023-06-18T01:08:34.289Z,16.69
2023-06-18T01:11:23.120Z,16.67
2023-06-18T01:14:11.378Z,16.59
2023-06-18T01:17:01.074Z,16.62
2023-06-18T01:19:53.134Z,16.48
2023-06-18T01:22:47.533Z,16.61
2023-06-18T01:25:38.793Z,16.60
2023-06-18T01:28:30.397Z,16.58
2023-06-18T01:31:21.963Z,16.43
2023-06-18T01:34:10.094Z,16.45
2023-06-18T01:37:04.989Z,16.62
2023-06-18T01:39:59.036Z,16.51
2023-06-18T01:42:53.602Z,16.68
2023-06-18T01:45:43.517Z,16.49
2023-06-18T01:48:37.964Z,16.40
2023-06-18T01:51:26.654Z,16.49
2023-06-18T01:54:16.216Z,16.51
2023-06-18T01:57:05.151Z,16.68
2023-06-18T01:59:54.250Z,16.52
2023-06-18T02:02:42.375Z,16.52
2023-06-18T02:05:30.675Z,16.40
2023-06-18T02:08:18.726Z,16.51
2023-06-18T02:11:06.439Z,16.61
2023-06-18T02:13:54.253Z,16.58
2023-06-18T02:16:44.091Z,16.48
2023-06-18T02:19:32.049Z,16.58
2023-06-18T02:22:19.883Z,16.49
2023-06-18T02:25:08.340Z,16.46
2023-06-18T02:27:56.534Z,16.61
2023-06-18T02:30:44.373Z,16.59
2023-06-18T02:33:33.770Z,16.44
2023-06-18T02:36:21.601Z,16.43
2023-06-18T02:39:10.088Z,16.74
2023-06-18T02:41:57.779Z,16.73
2023-06-18T02:44:46.913Z,16.50
2023-06-18T02:47:34.640Z,16.46
2023-06-18T02:50:24.166Z,16.55
2023-06-18T02:53:12.065Z,16.54
2023-06-18T02:55:59.763Z,16.53
2023-06-18T02:58:50.564Z,16.54
2023-06-18T03:01:38.612Z,16.58
2023-06-18T03:04:26.595Z,16.46
2023-06-18T03:07:15.904Z,16.42
2023-06-18T03:10:04.218Z,16.41
2023-06-18T03:12:52.030Z,16.64
2023-06-18T03:15:39.838Z,16.52
2023-06-18T03:18:27.637Z,16.67
2023-06-18T03:21:16.457Z,16.65
2023-06-18T03:24:06.644Z,16.78
2023-06-18T03:26:54.609Z,16.69
2023-06-18T03:29:42.979Z,16.85
2023-06-18T03:32:30.927Z,16.77
2023-06-18T03:35:19.776Z,16.67
2023-06-18T03:38:07.592Z,16.57
2023-06-18T03:40:57.026Z,16.70
2023-06-18T03:43:44.772Z,16.71
2023-06-18T03:46:33.321Z,16.69
2023-06-18T03:49:21.045Z,16.82
2023-06-18T03:52:09.608Z,16.81
2023-06-18T03:54:57.415Z,16.86
2023-06-18T03:57:46.766Z,16.82
2023-06-18T04:00:35.822Z,16.87
2023-06-18T04:03:23.996Z,16.95
2023-06-18T04:06:12.398Z,16.85
2023-06-18T04:09:00.161Z,17.01
2023-06-18T04:11:47.955Z,17.00
2023-06-18T04:14:37.739Z,17.02
2023-06-18T04:17:27.982Z,16.84
2023-06-18T04:20:16.036Z,16.60
2023-06-18T04:23:04.110Z,17.08
2023-06-18T04:25:52.324Z,17.15
2023-06-18T04:28:40.061Z,17.11
2023-06-18T04:31:29.363Z,17.22
2023-06-18T04:34:17.549Z,17.26
2023-06-18T04:37:05.770Z,17.36
2023-06-18T04:39:53.542Z,17.22
2023-06-18T04:42:41.335Z,17.33
2023-06-18T04:45:29.049Z,17.49
2023-06-18T04:48:18.773Z,17.52
2023-06-18T04:51:06.573Z,17.54
2023-06-18T04:53:54.390Z,17.61
2023-06-18T04:56:42.199Z,17.72
2023-06-18T04:59:30.142Z,17.81
2023-06-18T05:02:19.163Z,17.88
2023-06-18T05:05:09.462Z,17.98
2023-06-18T05:07:57.806Z,18.06
2023-06-18T05:10:45.654Z,18.14
2023-06-18T05:13:33.454Z,18.07
2023-06-18T05:16:21.276Z,18.16
2023-06-18T05:19:09.091Z,18.18
2023-06-18T05:21:59.263Z,18.06
2023-06-18T05:24:47.453Z,18.25
2023-06-18T05:27:35.269Z,18.39
2023-06-18T05:30:23.765Z,18.51
2023-06-18T05:33:11.862Z,18.59
2023-06-18T05:36:00.307Z,18.71
2023-06-18T05:38:49.655Z,18.68
2023-06-18T05:41:37.361Z,18.61
2023-06-18T05:44:25.296Z,18.60
2023-06-18T05:47:13.059Z,18.56
2023-06-18T05:50:01.013Z,18.51
2023-06-18T05:52:49.957Z,18.53
2023-06-18T05:55:39.066Z,18.52
2023-06-18T05:58:27.134Z,18.57
2023-06-18T06:01:15.586Z,18.62
2023-06-18T06:04:03.894Z,18.86
2023-06-18T06:06:51.760Z,18.90
2023-06-18T06:09:39.641Z,19.14
2023-06-18T06:12:28.790Z,19.14
2023-06-18T06:15:17.126Z,19.19
2023-06-18T06:18:05.000Z,19.09
2023-06-18T06:20:53.005Z,18.95
2023-06-18T06:23:41.243Z,18.81
2023-06-18T06:26:29.037Z,18.85
2023-06-18T06:29:18.192Z,18.79
2023-06-18T06:32:06.886Z,18.87
2023-06-18T06:34:54.613Z,18.88
2023-06-18T06:37:42.288Z,18.92
2023-06-18T06:40:30.267Z,18.88
2023-06-18T06:43:17.989Z,18.98
2023-06-18T06:46:07.417Z,19.03
2023-06-18T06:48:55.149Z,19.12
2023-06-18T06:51:44.361Z,19.10
2023-06-18T06:54:32.386Z,19.23
2023-06-18T06:57:20.158Z,19.23
2023-06-18T07:00:09.573Z,19.22
2023-06-18T07:02:58.704Z,19.27
2023-06-18T07:05:46.664Z,19.38
2023-06-18T07:08:34.433Z,19.50
2023-06-18T07:11:22.737Z,19.64
2023-06-18T07:14:10.511Z,19.83
2023-06-18T07:16:58.490Z,19.77
2023-06-18T07:19:47.654Z,19.78
2023-06-18T07:22:35.784Z,19.75
2023-06-18T07:25:23.470Z,19.75
2023-06-18T07:28:11.416Z,19.72
2023-06-18T07:30:59.127Z,19.76
2023-06-18T07:33:46.890Z,19.77
2023-06-18T07:36:36.250Z,19.75
2023-06-18T07:39:23.970Z,19.82
2023-06-18T07:42:13.260Z,19.93
2023-06-18T07:45:01.331Z,20.06
2023-06-18T07:47:49.212Z,20.18
2023-06-18T07:50:37.286Z,20.37
2023-06-18T07:53:26.891Z,20.29
2023-06-18T07:56:14.895Z,20.18
2023-06-18T07:59:02.979Z,20.31
2023-06-18T08:01:51.539Z,20.42
2023-06-18T08:04:40.062Z,20.35
2023-06-18T08:07:28.239Z,20.50
2023-06-18T08:10:17.270Z,20.68
2023-06-18T08:13:05.077Z,20.74
2023-06-18T08:15:52.768Z,20.90
2023-06-18T08:18:40.649Z,21.04
2023-06-18T08:21:28.399Z,20.97
2023-06-18T08:24:16.406Z,20.94
2023-06-18T08:27:06.367Z,21.05
2023-06-18T08:29:54.592Z,21.18
2023-06-18T08:32:42.332Z,21.49
2023-06-18T08:35:30.336Z,21.58
2023-06-18T08:38:18.086Z,21.63
2023-06-18T08:41:06.942Z,21.49
2023-06-18T08:43:56.145Z,21.35
2023-06-18T08:46:45.028Z,21.19
2023-06-18T08:49:33.139Z,21.52
2023-06-18T08:52:21.929Z,21.25
2023-06-18T08:55:14.948Z,21.48
2023-06-18T08:58:07.656Z,21.51
2023-06-18T09:00:56.876Z,21.48
2023-06-18T09:03:45.349Z,21.70
2023-06-18T09:06:33.320Z,21.62
2023-06-18T09:09:22.213Z,21.50
2023-06-18T09:12:11.499Z,21.69
2023-06-18T09:14:59.562Z,21.91
2023-06-18T09:17:52.956Z,21.96
2023-06-18T09:20:41.696Z,22.27
2023-06-18T09:23:29.460Z,22.27
2023-06-18T09:26:18.823Z,22.39
2023-06-18T09:29:07.291Z,22.16
2023-06-18T09:31:54.892Z,22.24
2023-06-18T09:34:45.383Z,22.29
2023-06-18T09:37:34.158Z,22.50
2023-06-18T09:40:23.852Z,22.48
2023-06-18T09:43:12.596Z,22.66
2023-06-18T09:46:00.482Z,22.45
2023-06-18T09:48:49.035Z,22.50
2023-06-18T09:51:42.237Z,22.69
2023-06-18T09:54:41.314Z,22.74
2023-06-18T09:57:29.010Z,22.63
2023-06-18T10:00:18.094Z,22.64
2023-06-18T10:03:07.581Z,22.86
2023-06-18T10:05:55.631Z,22.94
2023-06-18T10:08:46.560Z,23.04
2023-06-18T10:11:35.650Z,22.88
2023-06-18T10:14:25.366Z,22.87
2023-06-18T10:17:21.355Z,22.89
2023-06-18T10:20:11.448Z,23.01
2023-06-18T10:23:02.669Z,22.95
2023-06-18T10:25:52.683Z,23.07
2023-06-18T10:28:40.568Z,23.08
2023-06-18T10:31:28.796Z,23.24
2023-06-18T10:34:17.315Z,23.25
2023-06-18T10:37:06.197Z,23.26
2023-06-18T10:39:55.075Z,23.53
2023-06-18T10:42:49.973Z,23.70
2023-06-18T10:45:38.223Z,23.63
2023-06-18T10:48:28.987Z,23.56
2023-06-18T10:51:18.603Z,23.65
2023-06-18T10:54:23.419Z,23.81
2023-06-18T10:57:12.648Z,23.77
2023-06-18T11:00:02.030Z,23.74
2023-06-18T11:02:58.818Z,23.68
2023-06-18T11:05:48.818Z,23.84
2023-06-18T11:08:38.715Z,23.68
2023-06-18T11:11:27.327Z,23.88
2023-06-18T11:14:22.220Z,24.09
2023-06-18T11:17:12.432Z,24.01
2023-06-18T11:20:00.930Z,23.90
2023-06-18T11:22:49.715Z,23.95
2023-06-18T11:25:37.631Z,24.01
2023-06-18T11:28:26.994Z,24.14
2023-06-18T11:31:15.546Z,23.92
2023-06-18T11:34:08.941Z,23.92
2023-06-18T11:36:56.996Z,23.89
2023-06-18T11:39:45.131Z,23.86
2023-06-18T11:42:33.095Z,24.11
2023-06-18T11:45:22.650Z,24.11
2023-06-18T11:48:11.217Z,24.24
2023-06-18T11:51:00.335Z,24.03
2023-06-18T11:53:48.533Z,24.15
2023-06-18T11:56:36.448Z,24.13
2023-06-18T11:59:24.364Z,24.13
2023-06-18T12:02:13.459Z,24.25
2023-06-18T12:05:03.891Z,24.22
2023-06-18T12:07:53.279Z,24.28
2023-06-18T12:10:42.297Z,24.26
2023-06-18T12:13:36.407Z,24.39
2023-06-18T12:16:30.178Z,24.41
2023-06-18T12:19:20.300Z,24.31
2023-06-18T12:22:09.639Z,24.33
2023-06-18T12:24:58.959Z,24.42
2023-06-18T12:27:46.813Z,24.20
2023-06-18T12:30:37.749Z,24.36
2023-06-18T12:33:25.596Z,24.30
2023-06-18T12:36:13.682Z,24.24
2023-06-18T12:39:01.388Z,24.34
2023-06-18T12:41:50.670Z,24.47
2023-06-18T12:44:38.569Z,24.38
2023-06-18T12:47:26.808Z,24.25
2023-06-18T12:50:14.833Z,24.43
2023-06-18T12:53:16.787Z,24.41
2023-06-18T12:56:18.976Z,24.56
2023-06-18T12:59:17.745Z,24.52
2023-06-18T13:02:06.507Z,24.74
2023-06-18T13:04:55.120Z,24.65
2023-06-18T13:07:50.515Z,24.71
2023-06-18T13:10:38.270Z,24.47
2023-06-18T13:13:26.380Z,24.49
2023-06-18T13:16:15.774Z,24.73
2023-06-18T13:19:06.119Z,24.73
2023-06-18T13:21:54.729Z,24.74
2023-06-18T13:24:42.560Z,24.75
2023-06-18T13:27:30.746Z,24.63
2023-06-18T13:30:18.563Z,24.67
2023-06-18T13:33:08.163Z,24.57
2023-06-18T13:35:56.246Z,24.75
2023-06-18T13:38:44.303Z,24.92
2023-06-18T13:41:32.122Z,24.79
2023-06-18T13:44:20.121Z,24.97
2023-06-18T13:47:08.356Z,25.00
2023-06-18T13:49:57.405Z,25.06
2023-06-18T13:52:45.209Z,24.97
2023-06-18T13:55:32.905Z,25.11
2023-06-18T13:58:21.384Z,25.15
2023-06-18T14:01:09.345Z,24.98
2023-06-18T14:03:57.309Z,24.74
2023-06-18T14:06:47.039Z,24.66
2023-06-18T14:09:35.086Z,24.64
2023-06-18T14:12:22.955Z,24.59
2023-06-18T14:15:14.379Z,24.54
2023-06-18T14:18:02.211Z,24.48
2023-06-18T14:20:50.250Z,24.68
2023-06-18T14:23:40.989Z,24.64
2023-06-18T14:26:29.640Z,24.64
2023-06-18T14:29:17.858Z,24.60
2023-06-18T14:32:06.122Z,24.59
2023-06-18T14:34:54.164Z,24.49
2023-06-18T14:37:41.950Z,24.56
2023-06-18T14:40:31.326Z,24.70
2023-06-18T14:43:19.097Z,24.70
2023-06-18T14:46:06.974Z,24.82
2023-06-18T14:48:54.891Z,24.78
2023-06-18T14:51:42.608Z,24.71
2023-06-18T14:54:30.469Z,24.70
2023-06-18T14:57:20.468Z,24.70
2023-06-18T15:00:10.332Z,24.67
2023-06-18T15:02:58.235Z,24.68
2023-06-18T15:05:46.285Z,24.75
2023-06-18T15:08:35.377Z,24.84
2023-06-18T15:11:23.638Z,24.76
2023-06-18T15:14:12.860Z,24.78
2023-06-18T15:17:00.709Z,24.98
2023-06-18T15:19:56.380Z,24.92
2023-06-18T15:22:44.281Z,24.91
2023-06-18T15:25:32.313Z,24.74
2023-06-18T15:28:20.208Z,24.80
2023-06-18T15:31:11.848Z,24.76
2023-06-18T15:33:59.671Z,25.00
2023-06-18T15:36:47.396Z,24.88
2023-06-18T15:39:35.303Z,24.95
2023-06-18T15:42:23.139Z,24.93
2023-06-18T15:45:11.766Z,24.88
2023-06-18T15:48:00.853Z,24.92
2023-06-18T15:50:49.356Z,24.81
2023-06-18T15:53:37.125Z,24.77
2023-06-18T15:56:25.467Z,24.76
2023-06-18T15:59:14.010Z,24.82
2023-06-18T16:02:02.968Z,24.87
2023-06-18T16:04:52.295Z,24.84
2023-06-18T16:07:40.766Z,24.82
2023-06-18T16:10:28.822Z,24.73
2023-06-18T16:13:16.761Z,24.88
2023-06-18T16:16:04.727Z,24.90
2023-06-18T16:18:52.390Z,24.79
2023-06-18T16:21:41.768Z,24.78
2023-06-18T16:24:29.690Z,24.78
2023-06-18T16:27:17.650Z,24.74
2023-06-18T16:30:06.120Z,24.57
2023-06-18T16:32:53.984Z,24.64
2023-06-18T16:35:41.849Z,24.57
2023-06-18T16:38:31.196Z,24.62
2023-06-18T16:41:18.975Z,24.58
2023-06-18T16:44:06.824Z,24.49
2023-06-18T16:46:54.614Z,24.42
2023-06-18T16:49:42.370Z,24.40
2023-06-18T16:52:30.276Z,24.31
2023-06-18T16:55:19.912Z,23.99
2023-06-18T16:58:10.001Z,24.03
2023-06-18T17:00:57.806Z,23.87
2023-06-18T17:03:45.836Z,23.86
2023-06-18T17:06:34.750Z,23.76
2023-06-18T17:09:22.596Z,23.94
2023-06-18T17:12:11.735Z,23.76
2023-06-18T17:14:59.441Z,23.96
2023-06-18T17:17:47.159Z,23.85
2023-06-18T17:20:35.268Z,23.87
2023-06-18T17:23:22.999Z,23.57
2023-06-18T17:26:11.410Z,23.62
2023-06-18T17:29:00.830Z,23.79
2023-06-18T17:31:48.520Z,23.62
2023-06-18T17:34:36.424Z,23.54
2023-06-18T17:37:24.251Z,23.26
2023-06-18T17:40:12.588Z,23.58
2023-06-18T17:43:00.373Z,23.43
2023-06-18T17:45:49.610Z,23.42
2023-06-18T17:48:37.459Z,23.30
2023-06-18T17:51:25.303Z,23.33
2023-06-18T17:54:14.244Z,23.27
2023-06-18T17:57:02.184Z,23.11
2023-06-18T17:59:50.029Z,23.07
2023-06-18T18:02:39.168Z,23.11
2023-06-18T18:05:29.214Z,22.97
2023-06-18T18:08:17.008Z,23.05
2023-06-18T18:11:05.065Z,23.06
2023-06-18T18:13:52.796Z,23.03
2023-06-18T18:16:40.627Z,22.78
2023-06-18T18:19:29.838Z,22.67
2023-06-18T18:22:19.462Z,22.86
2023-06-18T18:25:07.908Z,23.06
2023-06-18T18:27:55.714Z,22.76
2023-06-18T18:30:45.109Z,22.75
2023-06-18T18:33:32.798Z,22.86
2023-06-18T18:36:22.187Z,23.00
2023-06-18T18:39:10.041Z,22.73
2023-06-18T18:41:58.022Z,22.66
2023-06-18T18:44:48.507Z,22.71
2023-06-18T18:47:36.333Z,22.61
2023-06-18T18:50:24.704Z,22.74
2023-06-18T18:53:14.032Z,22.78
2023-06-18T18:56:01.802Z,22.72
2023-06-18T18:58:50.041Z,22.88
2023-06-18T19:01:42.781Z,22.74
2023-06-18T19:04:30.794Z,22.66
2023-06-18T19:07:18.730Z,22.55
2023-06-18T19:10:11.916Z,22.77
2023-06-18T19:12:59.659Z,22.83
2023-06-18T19:15:47.583Z,22.52
2023-06-18T19:18:35.327Z,22.43
2023-06-18T19:21:23.291Z,22.56
2023-06-18T19:24:11.094Z,22.57
2023-06-18T19:27:00.466Z,22.13
2023-06-18T19:29:48.439Z,22.61
2023-06-18T19:32:36.514Z,22.33
2023-06-18T19:35:24.628Z,22.36
2023-06-18T19:38:12.648Z,22.20
2023-06-18T19:41:00.470Z,22.57
2023-06-18T19:43:49.743Z,22.54
2023-06-18T19:49:25.455Z,22.14
2023-06-18T19:52:13.478Z,22.24
2023-06-18T19:55:01.183Z,22.32
2023-06-18T19:57:49.333Z,22.17
2023-06-18T20:00:39.569Z,22.25
2023-06-18T20:03:27.493Z,22.39
2023-06-18T20:06:15.545Z,22.42
2023-06-18T20:09:03.371Z,22.21
2023-06-18T20:11:51.141Z,21.94
2023-06-18T20:14:38.861Z,21.87
2023-06-18T20:17:28.350Z,21.91
2023-06-18T20:20:18.266Z,22.07
2023-06-18T20:23:06.111Z,22.21
2023-06-18T20:25:53.829Z,22.06
2023-06-18T20:28:41.783Z,22.09
2023-06-18T20:31:29.836Z,21.71
2023-06-18T20:34:19.173Z,21.74
2023-06-18T20:37:08.037Z,21.69
2023-06-18T20:39:56.042Z,21.90
2023-06-18T20:42:43.824Z,21.69
2023-06-18T20:45:31.581Z,21.68
2023-06-18T20:48:19.488Z,21.97
2023-06-18T20:51:08.593Z,21.82
2023-06-18T20:53:59.771Z,21.94
2023-06-18T20:56:47.675Z,21.87
2023-06-18T20:59:35.680Z,21.92
2023-06-18T21:02:24.839Z,21.82
2023-06-18T21:05:13.375Z,21.97
2023-06-18T21:08:02.994Z,21.80
2023-06-18T21:10:50.953Z,21.83
2023-06-18T21:13:39.101Z,21.68
2023-06-18T21:16:27.262Z,21.63
2023-06-18T21:19:15.599Z,21.69
2023-06-18T21:22:15.591Z,21.42
2023-06-18T21:25:07.645Z,21.40
2023-06-18T21:28:03.263Z,21.43
2023-06-18T21:30:51.515Z,21.27
2023-06-18T21:33:39.695Z,21.18
2023-06-18T21:36:27.693Z,21.08
2023-06-18T21:39:15.638Z,21.29
2023-06-18T21:42:07.886Z,21.25
2023-06-18T21:44:55.881Z,21.16
2023-06-18T21:47:44.168Z,21.40
2023-06-18T21:50:34.701Z,21.18
2023-06-18T21:53:25.934Z,21.13
2023-06-18T21:56:14.009Z,21.22
2023-06-18T21:59:05.717Z,21.10
2023-06-18T22:01:55.383Z,20.91
2023-06-18T22:04:43.534Z,21.05
2023-06-18T22:07:32.931Z,21.07
2023-06-18T22:10:21.092Z,20.88
2023-06-18T22:13:09.461Z,21.30
2023-06-18T22:15:58.780Z,21.30
2023-06-18T22:18:47.769Z,20.95
2023-06-18T22:21:35.673Z,20.98
2023-06-18T22:24:23.728Z,20.88
2023-06-18T22:27:11.629Z,20.83
2023-06-18T22:30:00.559Z,21.13
2023-06-18T22:32:49.933Z,21.07
2023-06-18T22:35:38.748Z,20.89
2023-06-18T22:38:29.776Z,20.90
2023-06-18T22:41:18.244Z,20.90
2023-06-18T22:44:07.495Z,20.94
2023-06-18T22:46:55.411Z,20.90
2023-06-18T22:49:44.818Z,20.90
2023-06-18T22:52:32.723Z,20.84
2023-06-18T22:58:09.598Z,20.94
2023-06-18T23:00:57.587Z,20.78
2023-06-18T23:03:45.690Z,20.71
2023-06-18T23:06:35.145Z,20.39
2023-06-18T23:09:23.220Z,20.48
2023-06-18T23:12:11.576Z,20.46
2023-06-18T23:14:59.357Z,20.46
2023-06-18T23:17:47.391Z,20.55
2023-06-18T23:20:35.422Z,20.51
2023-06-18T23:23:30.876Z,20.67
2023-06-18T23:26:20.765Z,20.60
2023-06-18T23:29:10.875Z,20.85
2023-06-18T23:31:59.103Z,20.68
2023-06-18T23:34:47.282Z,20.62
2023-06-18T23:37:36.673Z,20.72
2023-06-18T23:40:26.482Z,20.34
2023-06-18T23:43:14.666Z,20.60
2023-06-18T23:46:02.744Z,20.56
2023-06-18T23:48:50.740Z,20.55
2023-06-18T23:51:39.701Z,20.46
2023-06-18T23:54:27.654Z,20.51
2023-06-18T23:57:17.221Z,20.67
